sensor_id;sensor_type;location;lat;lon;timestamp;temperature;humidity
66035;HTU21D;52805;51.074;5.842;2024-01-30T00:01:29;9.08;118.99
66035;HTU21D;52805;51.074;5.842;2024-01-30T00:03:55;9.04;118.99
66035;HTU21D;52805;51.074;5.842;2024-01-30T00:06:21;9.01;118.99
66035;HTU21D;52805;51.074;5.842;2024-01-30T00:08:46;8.98;118.99
66035;HTU21D;52805;51.074;5.842;2024-01-30T00:11:14;8.93;118.99
66035;HTU21D;52805;51.074;5.842;2024-01-30T00:13:40;8.91;118.99
66035;HTU21D;52805;51.074;5.842;2024-01-30T00:16:07;8.89;118.99
66035;HTU21D;52805;51.074;5.842;2024-01-30T00:18:33;8.89;118.99
66035;HTU21D;52805;51.074;5.842;2024-01-30T00:20:59;8.86;118.99
66035;HTU21D;52805;51.074;5.842;2024-01-30T00:23:24;8.86;118.99
66035;HTU21D;52805;51.074;5.842;2024-01-30T00:25:50;8.88;118.99
66035;HTU21D;52805;51.074;5.842;2024-01-30T00:28:16;8.87;118.99
66035;HTU21D;52805;51.074;5.842;2024-01-30T00:30:42;8.87;118.99
66035;HTU21D;52805;51.074;5.842;2024-01-30T00:33:08;8.89;118.99
66035;HTU21D;52805;51.074;5.842;2024-01-30T00:35:34;8.89;118.99
66035;HTU21D;52805;51.074;5.842;2024-01-30T00:37:59;8.90;118.99
66035;HTU21D;52805;51.074;5.842;2024-01-30T00:40:25;8.91;118.99
66035;HTU21D;52805;51.074;5.842;2024-01-30T00:42:51;8.91;118.99
66035;HTU21D;52805;51.074;5.842;2024-01-30T00:45:17;8.93;118.99
66035;HTU21D;52805;51.074;5.842;2024-01-30T00:47:43;8.94;118.99
66035;HTU21D;52805;51.074;5.842;2024-01-30T00:50:10;8.95;118.99
66035;HTU21D;52805;51.074;5.842;2024-01-30T00:52:36;9.00;118.99
66035;HTU21D;52805;51.074;5.842;2024-01-30T00:55:02;9.02;118.99
66035;HTU21D;52805;51.074;5.842;2024-01-30T00:57:28;9.09;118.99
66035;HTU21D;52805;51.074;5.842;2024-01-30T00:59:54;9.11;118.99
66035;HTU21D;52805;51.074;5.842;2024-01-30T01:02:20;9.17;118.99
66035;HTU21D;52805;51.074;5.842;2024-01-30T01:04:45;9.23;118.99
66035;HTU21D;52805;51.074;5.842;2024-01-30T01:07:11;9.27;118.99
66035;HTU21D;52805;51.074;5.842;2024-01-30T01:09:37;9.31;118.99
66035;HTU21D;52805;51.074;5.842;2024-01-30T01:12:03;9.35;118.99
66035;HTU21D;52805;51.074;5.842;2024-01-30T01:14:29;9.36;118.99
66035;HTU21D;52805;51.074;5.842;2024-01-30T01:16:55;9.37;118.99
66035;HTU21D;52805;51.074;5.842;2024-01-30T01:19:21;9.36;118.99
66035;HTU21D;52805;51.074;5.842;2024-01-30T01:21:47;9.35;118.99
66035;HTU21D;52805;51.074;5.842;2024-01-30T01:24:13;9.35;118.99
66035;HTU21D;52805;51.074;5.842;2024-01-30T01:26:40;9.33;118.99
66035;HTU21D;52805;51.074;5.842;2024-01-30T01:29:06;9.33;118.99
66035;HTU21D;52805;51.074;5.842;2024-01-30T01:31:36;9.31;118.99
66035;HTU21D;52805;51.074;5.842;2024-01-30T01:34:12;9.30;118.99
66035;HTU21D;52805;51.074;5.842;2024-01-30T01:36:39;9.30;118.99
66035;HTU21D;52805;51.074;5.842;2024-01-30T01:39:05;9.25;118.99
66035;HTU21D;52805;51.074;5.842;2024-01-30T01:41:31;9.25;118.99
66035;HTU21D;52805;51.074;5.842;2024-01-30T01:43:58;9.23;118.99
66035;HTU21D;52805;51.074;5.842;2024-01-30T01:46:27;9.22;118.99
66035;HTU21D;52805;51.074;5.842;2024-01-30T01:48:54;9.19;118.99
66035;HTU21D;52805;51.074;5.842;2024-01-30T01:51:22;9.19;118.99
66035;HTU21D;52805;51.074;5.842;2024-01-30T01:53:48;9.18;118.99
66035;HTU21D;52805;51.074;5.842;2024-01-30T01:56:15;9.21;118.99
66035;HTU21D;52805;51.074;5.842;2024-01-30T01:58:41;9.24;118.99
66035;HTU21D;52805;51.074;5.842;2024-01-30T02:01:07;9.26;118.99
66035;HTU21D;52805;51.074;5.842;2024-01-30T02:03:34;9.31;118.99
66035;HTU21D;52805;51.074;5.842;2024-01-30T02:06:01;9.37;118.99
66035;HTU21D;52805;51.074;5.842;2024-01-30T02:08:28;9.45;118.99
66035;HTU21D;52805;51.074;5.842;2024-01-30T02:10:54;9.50;118.99
66035;HTU21D;52805;51.074;5.842;2024-01-30T02:13:21;9.59;118.99
66035;HTU21D;52805;51.074;5.842;2024-01-30T02:15:51;9.69;118.99
66035;HTU21D;52805;51.074;5.842;2024-01-30T02:18:18;9.78;118.99
66035;HTU21D;52805;51.074;5.842;2024-01-30T02:20:44;9.83;118.99
66035;HTU21D;52805;51.074;5.842;2024-01-30T02:23:12;9.90;118.99
66035;HTU21D;52805;51.074;5.842;2024-01-30T02:25:41;9.94;118.99
66035;HTU21D;52805;51.074;5.842;2024-01-30T02:28:13;9.96;118.99
66035;HTU21D;52805;51.074;5.842;2024-01-30T02:30:40;9.97;118.99
66035;HTU21D;52805;51.074;5.842;2024-01-30T02:33:05;9.98;118.99
66035;HTU21D;52805;51.074;5.842;2024-01-30T02:35:32;10.00;118.99
66035;HTU21D;52805;51.074;5.842;2024-01-30T02:37:59;10.04;118.99
66035;HTU21D;52805;51.074;5.842;2024-01-30T02:40:24;10.04;118.99
66035;HTU21D;52805;51.074;5.842;2024-01-30T02:42:50;10.05;118.99
66035;HTU21D;52805;51.074;5.842;2024-01-30T02:45:16;10.07;118.99
66035;HTU21D;52805;51.074;5.842;2024-01-30T02:47:41;10.14;118.99
66035;HTU21D;52805;51.074;5.842;2024-01-30T02:50:08;10.19;118.99
66035;HTU21D;52805;51.074;5.842;2024-01-30T02:52:33;10.26;118.99
66035;HTU21D;52805;51.074;5.842;2024-01-30T02:54:59;10.35;118.99
66035;HTU21D;52805;51.074;5.842;2024-01-30T02:57:25;10.42;118.99
66035;HTU21D;52805;51.074;5.842;2024-01-30T02:59:51;10.45;118.99
66035;HTU21D;52805;51.074;5.842;2024-01-30T03:02:17;10.53;118.99
66035;HTU21D;52805;51.074;5.842;2024-01-30T03:04:42;10.55;118.99
66035;HTU21D;52805;51.074;5.842;2024-01-30T03:07:09;10.57;118.99
66035;HTU21D;52805;51.074;5.842;2024-01-30T03:09:36;10.55;118.99
66035;HTU21D;52805;51.074;5.842;2024-01-30T03:12:02;10.54;118.99
66035;HTU21D;52805;51.074;5.842;2024-01-30T03:14:31;10.53;118.99
66035;HTU21D;52805;51.074;5.842;2024-01-30T03:16:57;10.52;118.99
66035;HTU21D;52805;51.074;5.842;2024-01-30T03:19:23;10.48;118.99
66035;HTU21D;52805;51.074;5.842;2024-01-30T03:21:49;10.46;118.99
66035;HTU21D;52805;51.074;5.842;2024-01-30T03:24:15;10.44;118.99
66035;HTU21D;52805;51.074;5.842;2024-01-30T03:26:41;10.41;118.99
66035;HTU21D;52805;51.074;5.842;2024-01-30T03:29:07;10.40;118.99
66035;HTU21D;52805;51.074;5.842;2024-01-30T03:31:33;10.40;118.99
66035;HTU21D;52805;51.074;5.842;2024-01-30T03:33:58;10.40;118.99
66035;HTU21D;52805;51.074;5.842;2024-01-30T03:36:24;10.40;118.99
66035;HTU21D;52805;51.074;5.842;2024-01-30T03:38:50;10.37;118.99
66035;HTU21D;52805;51.074;5.842;2024-01-30T03:41:16;10.36;118.99
66035;HTU21D;52805;51.074;5.842;2024-01-30T03:43:41;10.36;118.99
66035;HTU21D;52805;51.074;5.842;2024-01-30T03:46:07;10.38;118.99
66035;HTU21D;52805;51.074;5.842;2024-01-30T03:48:33;10.39;118.99
66035;HTU21D;52805;51.074;5.842;2024-01-30T03:50:59;10.39;118.99
66035;HTU21D;52805;51.074;5.842;2024-01-30T03:53:24;10.44;118.99
66035;HTU21D;52805;51.074;5.842;2024-01-30T03:55:50;10.46;118.99
66035;HTU21D;52805;51.074;5.842;2024-01-30T03:58:16;10.49;118.99
66035;HTU21D;52805;51.074;5.842;2024-01-30T04:00:42;10.55;118.99
66035;HTU21D;52805;51.074;5.842;2024-01-30T04:03:07;10.54;118.99
66035;HTU21D;52805;51.074;5.842;2024-01-30T04:05:33;10.57;118.99
66035;HTU21D;52805;51.074;5.842;2024-01-30T04:07:59;10.59;118.99
66035;HTU21D;52805;51.074;5.842;2024-01-30T04:10:25;10.64;118.99
66035;HTU21D;52805;51.074;5.842;2024-01-30T04:12:51;10.62;118.99
66035;HTU21D;52805;51.074;5.842;2024-01-30T04:15:17;10.58;118.99
66035;HTU21D;52805;51.074;5.842;2024-01-30T04:17:44;10.56;118.99
66035;HTU21D;52805;51.074;5.842;2024-01-30T04:20:18;10.54;118.99
66035;HTU21D;52805;51.074;5.842;2024-01-30T04:22:45;10.51;118.99
66035;HTU21D;52805;51.074;5.842;2024-01-30T04:25:11;10.45;118.99
66035;HTU21D;52805;51.074;5.842;2024-01-30T04:27:37;10.48;118.99
66035;HTU21D;52805;51.074;5.842;2024-01-30T04:30:03;10.44;118.99
66035;HTU21D;52805;51.074;5.842;2024-01-30T04:32:29;10.45;118.99
66035;HTU21D;52805;51.074;5.842;2024-01-30T04:34:55;10.45;118.99
66035;HTU21D;52805;51.074;5.842;2024-01-30T04:37:20;10.46;118.99
66035;HTU21D;52805;51.074;5.842;2024-01-30T04:39:46;10.49;118.99
66035;HTU21D;52805;51.074;5.842;2024-01-30T04:42:12;10.49;118.99
66035;HTU21D;52805;51.074;5.842;2024-01-30T04:44:38;10.51;118.99
66035;HTU21D;52805;51.074;5.842;2024-01-30T04:47:03;10.53;118.99
66035;HTU21D;52805;51.074;5.842;2024-01-30T04:49:31;10.56;118.99
66035;HTU21D;52805;51.074;5.842;2024-01-30T04:51:57;10.56;118.99
66035;HTU21D;52805;51.074;5.842;2024-01-30T04:54:24;10.55;118.99
66035;HTU21D;52805;51.074;5.842;2024-01-30T04:56:49;10.56;118.99
66035;HTU21D;52805;51.074;5.842;2024-01-30T04:59:15;10.58;118.99
66035;HTU21D;52805;51.074;5.842;2024-01-30T05:01:41;10.58;118.99
66035;HTU21D;52805;51.074;5.842;2024-01-30T05:04:10;10.60;118.99
66035;HTU21D;52805;51.074;5.842;2024-01-30T05:06:37;10.60;118.99
66035;HTU21D;52805;51.074;5.842;2024-01-30T05:09:02;10.65;118.99
66035;HTU21D;52805;51.074;5.842;2024-01-30T05:11:30;10.67;118.99
66035;HTU21D;52805;51.074;5.842;2024-01-30T05:13:56;10.68;118.99
66035;HTU21D;52805;51.074;5.842;2024-01-30T05:16:22;10.70;118.99
66035;HTU21D;52805;51.074;5.842;2024-01-30T05:18:47;10.75;118.99
66035;HTU21D;52805;51.074;5.842;2024-01-30T05:21:13;10.75;118.99
66035;HTU21D;52805;51.074;5.842;2024-01-30T05:23:39;10.82;118.99
66035;HTU21D;52805;51.074;5.842;2024-01-30T05:26:05;10.82;118.99
66035;HTU21D;52805;51.074;5.842;2024-01-30T05:28:32;10.84;118.99
66035;HTU21D;52805;51.074;5.842;2024-01-30T05:30:58;10.86;118.99
66035;HTU21D;52805;51.074;5.842;2024-01-30T05:33:24;10.89;118.99
66035;HTU21D;52805;51.074;5.842;2024-01-30T05:35:50;10.95;118.99
66035;HTU21D;52805;51.074;5.842;2024-01-30T05:38:16;10.95;118.99
66035;HTU21D;52805;51.074;5.842;2024-01-30T05:40:41;10.96;118.99
66035;HTU21D;52805;51.074;5.842;2024-01-30T05:43:07;10.99;118.99
66035;HTU21D;52805;51.074;5.842;2024-01-30T05:45:33;10.98;118.99
66035;HTU21D;52805;51.074;5.842;2024-01-30T05:48:00;11.00;118.99
66035;HTU21D;52805;51.074;5.842;2024-01-30T05:50:26;11.01;118.99
66035;HTU21D;52805;51.074;5.842;2024-01-30T05:52:52;11.11;118.99
66035;HTU21D;52805;51.074;5.842;2024-01-30T05:55:18;11.12;118.99
66035;HTU21D;52805;51.074;5.842;2024-01-30T05:57:44;11.11;118.99
66035;HTU21D;52805;51.074;5.842;2024-01-30T06:00:10;11.12;118.99
66035;HTU21D;52805;51.074;5.842;2024-01-30T06:02:36;11.16;118.99
66035;HTU21D;52805;51.074;5.842;2024-01-30T06:05:02;11.15;118.99
66035;HTU21D;52805;51.074;5.842;2024-01-30T06:07:28;11.19;118.99
66035;HTU21D;52805;51.074;5.842;2024-01-30T06:09:53;11.16;118.99
66035;HTU21D;52805;51.074;5.842;2024-01-30T06:12:19;11.17;118.99
66035;HTU21D;52805;51.074;5.842;2024-01-30T06:14:45;11.15;118.99
66035;HTU21D;52805;51.074;5.842;2024-01-30T06:17:10;11.12;118.99
66035;HTU21D;52805;51.074;5.842;2024-01-30T06:19:38;11.15;118.99
66035;HTU21D;52805;51.074;5.842;2024-01-30T06:22:07;11.13;118.99
66035;HTU21D;52805;51.074;5.842;2024-01-30T06:24:32;11.12;118.99
66035;HTU21D;52805;51.074;5.842;2024-01-30T06:26:59;11.11;118.99
66035;HTU21D;52805;51.074;5.842;2024-01-30T06:29:26;11.18;118.99
66035;HTU21D;52805;51.074;5.842;2024-01-30T06:31:52;11.16;118.99
66035;HTU21D;52805;51.074;5.842;2024-01-30T06:34:18;11.20;118.99
66035;HTU21D;52805;51.074;5.842;2024-01-30T06:36:43;11.22;118.99
66035;HTU21D;52805;51.074;5.842;2024-01-30T06:39:09;11.24;118.99
66035;HTU21D;52805;51.074;5.842;2024-01-30T06:41:35;11.32;118.99
66035;HTU21D;52805;51.074;5.842;2024-01-30T06:44:02;11.31;118.99
66035;HTU21D;52805;51.074;5.842;2024-01-30T06:46:29;11.34;118.99
66035;HTU21D;52805;51.074;5.842;2024-01-30T06:48:55;11.33;118.99
66035;HTU21D;52805;51.074;5.842;2024-01-30T06:51:21;11.33;118.99
66035;HTU21D;52805;51.074;5.842;2024-01-30T06:53:46;11.32;118.99
66035;HTU21D;52805;51.074;5.842;2024-01-30T06:56:12;11.32;118.99
66035;HTU21D;52805;51.074;5.842;2024-01-30T06:58:38;11.33;118.99
66035;HTU21D;52805;51.074;5.842;2024-01-30T07:01:04;11.36;118.99
66035;HTU21D;52805;51.074;5.842;2024-01-30T07:03:30;11.38;118.99
66035;HTU21D;52805;51.074;5.842;2024-01-30T07:05:55;11.37;118.99
66035;HTU21D;52805;51.074;5.842;2024-01-30T07:08:21;11.38;118.99
66035;HTU21D;52805;51.074;5.842;2024-01-30T07:10:47;11.38;118.99
66035;HTU21D;52805;51.074;5.842;2024-01-30T07:13:13;11.41;118.99
66035;HTU21D;52805;51.074;5.842;2024-01-30T07:15:42;11.39;118.99
66035;HTU21D;52805;51.074;5.842;2024-01-30T07:18:08;11.43;118.99
66035;HTU21D;52805;51.074;5.842;2024-01-30T07:20:35;11.44;118.99
66035;HTU21D;52805;51.074;5.842;2024-01-30T07:23:01;11.43;118.99
66035;HTU21D;52805;51.074;5.842;2024-01-30T07:25:27;11.43;118.99
66035;HTU21D;52805;51.074;5.842;2024-01-30T07:27:55;11.43;118.99
66035;HTU21D;52805;51.074;5.842;2024-01-30T07:30:22;11.43;118.99
66035;HTU21D;52805;51.074;5.842;2024-01-30T07:32:48;11.41;118.99
66035;HTU21D;52805;51.074;5.842;2024-01-30T07:35:14;11.37;118.99
66035;HTU21D;52805;51.074;5.842;2024-01-30T07:37:40;11.34;118.99
66035;HTU21D;52805;51.074;5.842;2024-01-30T07:40:06;11.31;118.99
66035;HTU21D;52805;51.074;5.842;2024-01-30T07:42:32;11.30;118.99
66035;HTU21D;52805;51.074;5.842;2024-01-30T07:44:59;11.30;118.99
66035;HTU21D;52805;51.074;5.842;2024-01-30T07:47:25;11.30;118.99
66035;HTU21D;52805;51.074;5.842;2024-01-30T07:49:51;11.29;118.99
66035;HTU21D;52805;51.074;5.842;2024-01-30T07:52:16;11.28;118.99
66035;HTU21D;52805;51.074;5.842;2024-01-30T07:54:49;11.27;118.99
66035;HTU21D;52805;51.074;5.842;2024-01-30T07:57:18;11.28;118.99
66035;HTU21D;52805;51.074;5.842;2024-01-30T07:59:44;11.29;118.99
66035;HTU21D;52805;51.074;5.842;2024-01-30T08:02:12;11.31;118.99
66035;HTU21D;52805;51.074;5.842;2024-01-30T08:04:38;11.30;118.99
66035;HTU21D;52805;51.074;5.842;2024-01-30T08:07:04;11.29;118.99
66035;HTU21D;52805;51.074;5.842;2024-01-30T08:09:29;11.29;118.99
66035;HTU21D;52805;51.074;5.842;2024-01-30T08:11:55;11.29;118.99
66035;HTU21D;52805;51.074;5.842;2024-01-30T08:14:21;11.30;118.99
66035;HTU21D;52805;51.074;5.842;2024-01-30T08:16:46;11.30;118.99
66035;HTU21D;52805;51.074;5.842;2024-01-30T08:19:12;11.31;118.99
66035;HTU21D;52805;51.074;5.842;2024-01-30T08:21:38;11.34;118.99
66035;HTU21D;52805;51.074;5.842;2024-01-30T08:24:04;11.34;118.99
66035;HTU21D;52805;51.074;5.842;2024-01-30T08:26:32;11.38;118.99
66035;HTU21D;52805;51.074;5.842;2024-01-30T08:28:57;11.39;118.99
66035;HTU21D;52805;51.074;5.842;2024-01-30T08:31:23;11.40;118.99
66035;HTU21D;52805;51.074;5.842;2024-01-30T08:33:49;11.45;118.99
66035;HTU21D;52805;51.074;5.842;2024-01-30T08:36:16;11.46;118.99
66035;HTU21D;52805;51.074;5.842;2024-01-30T08:38:42;11.51;118.99
66035;HTU21D;52805;51.074;5.842;2024-01-30T08:41:07;11.53;118.99
66035;HTU21D;52805;51.074;5.842;2024-01-30T08:43:33;11.56;118.99
66035;HTU21D;52805;51.074;5.842;2024-01-30T08:46:00;11.59;118.99
66035;HTU21D;52805;51.074;5.842;2024-01-30T08:48:26;11.68;118.99
66035;HTU21D;52805;51.074;5.842;2024-01-30T08:50:52;11.71;118.99
66035;HTU21D;52805;51.074;5.842;2024-01-30T08:53:18;11.72;118.99
66035;HTU21D;52805;51.074;5.842;2024-01-30T08:55:44;11.74;118.99
66035;HTU21D;52805;51.074;5.842;2024-01-30T08:58:10;11.76;118.99
66035;HTU21D;52805;51.074;5.842;2024-01-30T09:00:36;11.78;118.99
66035;HTU21D;52805;51.074;5.842;2024-01-30T09:03:03;11.81;118.99
66035;HTU21D;52805;51.074;5.842;2024-01-30T09:05:28;11.84;118.99
66035;HTU21D;52805;51.074;5.842;2024-01-30T09:07:54;11.83;118.99
66035;HTU21D;52805;51.074;5.842;2024-01-30T09:10:20;11.83;118.99
66035;HTU21D;52805;51.074;5.842;2024-01-30T09:12:46;11.83;118.99
66035;HTU21D;52805;51.074;5.842;2024-01-30T09:15:12;11.84;118.99
66035;HTU21D;52805;51.074;5.842;2024-01-30T09:17:38;11.82;118.99
66035;HTU21D;52805;51.074;5.842;2024-01-30T09:20:04;11.81;118.99
66035;HTU21D;52805;51.074;5.842;2024-01-30T09:22:30;11.84;118.99
66035;HTU21D;52805;51.074;5.842;2024-01-30T09:24:57;11.86;118.99
66035;HTU21D;52805;51.074;5.842;2024-01-30T09:27:23;11.89;118.99
66035;HTU21D;52805;51.074;5.842;2024-01-30T09:29:49;11.90;118.99
66035;HTU21D;52805;51.074;5.842;2024-01-30T09:32:15;11.97;118.99
66035;HTU21D;52805;51.074;5.842;2024-01-30T09:34:40;11.98;118.99
66035;HTU21D;52805;51.074;5.842;2024-01-30T09:37:08;12.05;118.99
66035;HTU21D;52805;51.074;5.842;2024-01-30T09:39:33;12.05;118.99
66035;HTU21D;52805;51.074;5.842;2024-01-30T09:42:05;12.10;118.99
66035;HTU21D;52805;51.074;5.842;2024-01-30T09:44:38;12.10;118.99
66035;HTU21D;52805;51.074;5.842;2024-01-30T09:47:07;12.12;118.99
66035;HTU21D;52805;51.074;5.842;2024-01-30T09:49:34;12.15;118.99
66035;HTU21D;52805;51.074;5.842;2024-01-30T09:52:02;12.15;118.99
66035;HTU21D;52805;51.074;5.842;2024-01-30T09:54:31;12.20;118.99
66035;HTU21D;52805;51.074;5.842;2024-01-30T09:56:58;12.23;118.99
66035;HTU21D;52805;51.074;5.842;2024-01-30T09:59:24;12.27;118.99
66035;HTU21D;52805;51.074;5.842;2024-01-30T10:01:50;12.31;118.99
66035;HTU21D;52805;51.074;5.842;2024-01-30T10:04:17;12.31;118.99
66035;HTU21D;52805;51.074;5.842;2024-01-30T10:06:43;12.37;118.99
66035;HTU21D;52805;51.074;5.842;2024-01-30T10:09:09;12.34;118.99
66035;HTU21D;52805;51.074;5.842;2024-01-30T10:11:38;12.37;118.99
66035;HTU21D;52805;51.074;5.842;2024-01-30T10:14:04;12.43;118.99
66035;HTU21D;52805;51.074;5.842;2024-01-30T10:16:30;12.45;118.99
66035;HTU21D;52805;51.074;5.842;2024-01-30T10:18:55;12.51;118.99
66035;HTU21D;52805;51.074;5.842;2024-01-30T10:21:21;12.52;118.99
66035;HTU21D;52805;51.074;5.842;2024-01-30T10:23:47;12.55;118.99
66035;HTU21D;52805;51.074;5.842;2024-01-30T10:26:13;12.59;118.99
66035;HTU21D;52805;51.074;5.842;2024-01-30T10:28:39;12.64;118.99
66035;HTU21D;52805;51.074;5.842;2024-01-30T10:31:04;12.65;118.99
66035;HTU21D;52805;51.074;5.842;2024-01-30T10:33:30;12.73;118.99
66035;HTU21D;52805;51.074;5.842;2024-01-30T10:36:04;12.76;118.99
66035;HTU21D;52805;51.074;5.842;2024-01-30T10:38:31;12.75;118.99
66035;HTU21D;52805;51.074;5.842;2024-01-30T10:40:58;12.82;118.99
66035;HTU21D;52805;51.074;5.842;2024-01-30T10:43:32;12.88;118.99
66035;HTU21D;52805;51.074;5.842;2024-01-30T10:46:18;12.88;118.99
66035;HTU21D;52805;51.074;5.842;2024-01-30T10:48:50;12.93;118.99
66035;HTU21D;52805;51.074;5.842;2024-01-30T10:51:22;12.97;118.99
66035;HTU21D;52805;51.074;5.842;2024-01-30T10:53:49;12.97;118.99
66035;HTU21D;52805;51.074;5.842;2024-01-30T10:56:16;12.95;118.99
66035;HTU21D;52805;51.074;5.842;2024-01-30T10:58:42;13.01;118.99
66035;HTU21D;52805;51.074;5.842;2024-01-30T11:01:09;13.01;118.99
66035;HTU21D;52805;51.074;5.842;2024-01-30T11:03:36;13.08;118.99
66035;HTU21D;52805;51.074;5.842;2024-01-30T11:06:02;13.10;118.99
66035;HTU21D;52805;51.074;5.842;2024-01-30T11:08:28;13.07;118.99
66035;HTU21D;52805;51.074;5.842;2024-01-30T11:10:58;13.04;118.99
66035;HTU21D;52805;51.074;5.842;2024-01-30T11:13:29;13.09;118.99
66035;HTU21D;52805;51.074;5.842;2024-01-30T11:15:55;13.06;118.99
66035;HTU21D;52805;51.074;5.842;2024-01-30T11:18:26;13.09;118.99
66035;HTU21D;52805;51.074;5.842;2024-01-30T11:20:56;13.09;118.99
66035;HTU21D;52805;51.074;5.842;2024-01-30T11:23:22;13.10;118.99
66035;HTU21D;52805;51.074;5.842;2024-01-30T11:25:48;13.11;118.99
66035;HTU21D;52805;51.074;5.842;2024-01-30T11:28:15;13.18;118.99
66035;HTU21D;52805;51.074;5.842;2024-01-30T11:30:44;13.20;118.99
66035;HTU21D;52805;51.074;5.842;2024-01-30T11:33:13;13.22;118.99
66035;HTU21D;52805;51.074;5.842;2024-01-30T11:35:43;13.29;118.99
66035;HTU21D;52805;51.074;5.842;2024-01-30T11:38:11;13.25;118.99
66035;HTU21D;52805;51.074;5.842;2024-01-30T11:40:40;13.21;118.99
66035;HTU21D;52805;51.074;5.842;2024-01-30T11:43:07;13.17;118.99
66035;HTU21D;52805;51.074;5.842;2024-01-30T11:45:34;13.10;118.99
66035;HTU21D;52805;51.074;5.842;2024-01-30T11:48:01;13.08;118.99
66035;HTU21D;52805;51.074;5.842;2024-01-30T11:50:33;13.11;118.99
66035;HTU21D;52805;51.074;5.842;2024-01-30T11:53:02;13.10;118.99
66035;HTU21D;52805;51.074;5.842;2024-01-30T11:55:31;13.16;118.99
66035;HTU21D;52805;51.074;5.842;2024-01-30T11:57:57;13.23;118.99
66035;HTU21D;52805;51.074;5.842;2024-01-30T12:00:23;13.16;118.99
66035;HTU21D;52805;51.074;5.842;2024-01-30T12:02:50;13.23;118.99
66035;HTU21D;52805;51.074;5.842;2024-01-30T12:05:16;13.11;118.99
66035;HTU21D;52805;51.074;5.842;2024-01-30T12:07:45;13.07;118.99
66035;HTU21D;52805;51.074;5.842;2024-01-30T12:10:13;13.08;118.99
66035;HTU21D;52805;51.074;5.842;2024-01-30T12:12:45;13.08;118.99
66035;HTU21D;52805;51.074;5.842;2024-01-30T12:15:11;13.08;118.99
66035;HTU21D;52805;51.074;5.842;2024-01-30T12:17:37;13.05;118.99
66035;HTU21D;52805;51.074;5.842;2024-01-30T12:22:29;13.06;118.99
66035;HTU21D;52805;51.074;5.842;2024-01-30T12:24:54;13.09;118.99
66035;HTU21D;52805;51.074;5.842;2024-01-30T12:27:20;13.10;118.99
66035;HTU21D;52805;51.074;5.842;2024-01-30T12:29:46;13.10;118.99
66035;HTU21D;52805;51.074;5.842;2024-01-30T12:32:15;13.12;118.99
66035;HTU21D;52805;51.074;5.842;2024-01-30T12:34:42;13.15;118.99
66035;HTU21D;52805;51.074;5.842;2024-01-30T12:37:08;13.12;118.99
66035;HTU21D;52805;51.074;5.842;2024-01-30T12:39:35;13.05;118.99
66035;HTU21D;52805;51.074;5.842;2024-01-30T12:42:01;13.06;118.99
66035;HTU21D;52805;51.074;5.842;2024-01-30T12:44:27;13.06;118.99
66035;HTU21D;52805;51.074;5.842;2024-01-30T12:46:54;13.03;118.99
66035;HTU21D;52805;51.074;5.842;2024-01-30T12:49:20;13.08;118.99
66035;HTU21D;52805;51.074;5.842;2024-01-30T12:51:46;13.06;118.99
66035;HTU21D;52805;51.074;5.842;2024-01-30T12:54:12;13.07;118.99
66035;HTU21D;52805;51.074;5.842;2024-01-30T12:56:38;13.11;118.99
66035;HTU21D;52805;51.074;5.842;2024-01-30T12:59:04;13.16;118.99
66035;HTU21D;52805;51.074;5.842;2024-01-30T13:01:30;13.17;118.99
66035;HTU21D;52805;51.074;5.842;2024-01-30T13:03:55;13.19;118.99
66035;HTU21D;52805;51.074;5.842;2024-01-30T13:06:22;13.24;118.99
66035;HTU21D;52805;51.074;5.842;2024-01-30T13:08:48;13.25;118.99
66035;HTU21D;52805;51.074;5.842;2024-01-30T13:11:14;13.24;118.99
66035;HTU21D;52805;51.074;5.842;2024-01-30T13:13:39;13.31;118.99
66035;HTU21D;52805;51.074;5.842;2024-01-30T13:16:05;13.31;118.99
66035;HTU21D;52805;51.074;5.842;2024-01-30T13:18:31;13.32;118.99
66035;HTU21D;52805;51.074;5.842;2024-01-30T13:20:57;13.29;118.99
66035;HTU21D;52805;51.074;5.842;2024-01-30T13:23:22;13.24;118.99
66035;HTU21D;52805;51.074;5.842;2024-01-30T13:25:48;13.23;118.99
66035;HTU21D;52805;51.074;5.842;2024-01-30T13:28:14;13.22;118.99
66035;HTU21D;52805;51.074;5.842;2024-01-30T13:30:40;13.21;118.99
66035;HTU21D;52805;51.074;5.842;2024-01-30T13:33:05;13.20;118.99
66035;HTU21D;52805;51.074;5.842;2024-01-30T13:35:31;13.30;118.99
66035;HTU21D;52805;51.074;5.842;2024-01-30T13:37:56;13.21;118.99
66035;HTU21D;52805;51.074;5.842;2024-01-30T13:40:22;13.17;118.99
66035;HTU21D;52805;51.074;5.842;2024-01-30T13:42:48;13.21;118.99
66035;HTU21D;52805;51.074;5.842;2024-01-30T13:45:13;13.20;118.99
66035;HTU21D;52805;51.074;5.842;2024-01-30T13:47:40;13.21;118.99
66035;HTU21D;52805;51.074;5.842;2024-01-30T13:50:06;13.19;118.99
66035;HTU21D;52805;51.074;5.842;2024-01-30T13:52:33;13.11;118.99
66035;HTU21D;52805;51.074;5.842;2024-01-30T13:54:59;13.09;118.99
66035;HTU21D;52805;51.074;5.842;2024-01-30T13:57:25;13.07;118.99
66035;HTU21D;52805;51.074;5.842;2024-01-30T13:59:50;13.08;118.99
66035;HTU21D;52805;51.074;5.842;2024-01-30T14:02:16;13.11;118.99
66035;HTU21D;52805;51.074;5.842;2024-01-30T14:04:42;13.09;118.99
66035;HTU21D;52805;51.074;5.842;2024-01-30T14:07:07;13.08;118.99
66035;HTU21D;52805;51.074;5.842;2024-01-30T14:09:33;13.02;118.99
66035;HTU21D;52805;51.074;5.842;2024-01-30T14:11:59;13.01;118.99
66035;HTU21D;52805;51.074;5.842;2024-01-30T14:14:25;13.01;118.99
66035;HTU21D;52805;51.074;5.842;2024-01-30T14:16:51;13.03;118.99
66035;HTU21D;52805;51.074;5.842;2024-01-30T14:19:16;13.09;117.81
66035;HTU21D;52805;51.074;5.842;2024-01-30T14:21:42;13.15;109.78
66035;HTU21D;52805;51.074;5.842;2024-01-30T14:24:08;13.08;105.95
66035;HTU21D;52805;51.074;5.842;2024-01-30T14:26:33;13.07;97.65
66035;HTU21D;52805;51.074;5.842;2024-01-30T14:28:59;12.95;88.36
66035;HTU21D;52805;51.074;5.842;2024-01-30T14:31:24;12.87;84.64
66035;HTU21D;52805;51.074;5.842;2024-01-30T14:33:50;12.77;85.76
66035;HTU21D;52805;51.074;5.842;2024-01-30T14:36:16;12.72;86.54
66035;HTU21D;52805;51.074;5.842;2024-01-30T14:38:42;12.74;80.24
66035;HTU21D;52805;51.074;5.842;2024-01-30T14:41:08;12.66;78.93
66035;HTU21D;52805;51.074;5.842;2024-01-30T14:43:33;12.59;78.22
66035;HTU21D;52805;51.074;5.842;2024-01-30T14:45:59;12.56;76.00
66035;HTU21D;52805;51.074;5.842;2024-01-30T14:48:24;12.52;74.50
66035;HTU21D;52805;51.074;5.842;2024-01-30T14:50:50;12.48;72.02
66035;HTU21D;52805;51.074;5.842;2024-01-30T14:53:16;12.47;65.01
66035;HTU21D;52805;51.074;5.842;2024-01-30T14:55:41;12.37;66.56
66035;HTU21D;52805;51.074;5.842;2024-01-30T14:58:07;12.38;63.75
66035;HTU21D;52805;51.074;5.842;2024-01-30T15:00:33;12.43;65.33
66035;HTU21D;52805;51.074;5.842;2024-01-30T15:02:59;12.44;62.79